Time;durP1;ratioP1;P1;durP2;ratioP2;P2;SDS_P1;SDS_P2;PMS_P1;PMS_P2;Temp;Humidity;BMP_temperature;BMP_pressure;BME280_temperature;BME280_humidity;BME280_pressure;Samples;Min_cycle;Max_cycle;Signal;HPM_P1;HPM_P2
2022/05/05 00:01:50;;;;;;;2.50;2.30;;;;;;;11.27;100.00;96411.81;5006665;28;20210;-81
2022/05/05 00:04:18;;;;;;;2.50;2.30;;;;;;;11.21;100.00;96415.47;5002203;28;20219;-81
2022/05/05 00:06:45;;;;;;;2.50;2.30;;;;;;;11.20;100.00;96419.22;5010362;28;20203;-81
2022/05/05 00:09:12;;;;;;;2.90;2.40;;;;;;;11.22;100.00;96414.41;5008630;28;20265;-80
2022/05/05 00:14:28;;;;;;;4.67;2.67;;;;;;;11.28;100.00;96410.78;5029993;28;20210;-80
2022/05/05 00:16:59;;;;;;;3.00;2.77;;;;;;;11.22;100.00;96414.41;5029403;28;20203;-80
2022/05/05 00:19:28;;;;;;;3.43;2.77;;;;;;;11.17;100.00;96402.63;5000983;28;20242;-79
2022/05/05 00:21:56;;;;;;;2.50;2.30;;;;;;;11.22;100.00;96414.41;5013260;28;20227;-81
2022/05/05 00:24:24;;;;;;;3.90;2.47;;;;;;;11.21;100.00;96404.66;5004874;28;20225;-81
2022/05/05 00:26:51;;;;;;;3.53;2.37;;;;;;;11.17;100.00;96400.75;5014181;28;20219;-80
2022/05/05 00:29:18;;;;;;;2.60;2.40;;;;;;;11.22;100.00;96414.41;5013453;28;20203;-81
2022/05/05 00:31:46;;;;;;;2.93;2.60;;;;;;;11.16;100.00;96399.09;5003015;28;20203;-82
2022/05/05 00:34:14;;;;;;;2.63;2.30;;;;;;;11.20;100.00;96405.69;5020841;28;20211;-81
2022/05/05 00:36:41;;;;;;;2.67;2.40;;;;;;;11.20;100.00;96392.19;4997867;28;20202;-81
2022/05/05 00:39:11;;;;;;;2.43;2.23;;;;;;;11.29;100.00;96404.31;4996941;28;20234;-81
2022/05/05 00:41:40;;;;;;;3.00;2.30;;;;;;;11.28;100.00;96402.66;5030383;28;20210;-81
2022/05/05 00:44:08;;;;;;;3.00;2.70;;;;;;;11.29;100.00;96403.47;5010874;28;20302;-81
2022/05/05 00:46:36;;;;;;;4.77;2.73;;;;;;;11.34;100.00;96399.00;5002011;28;20231;-83
2022/05/05 00:49:04;;;;;;;3.73;2.57;;;;;;;11.25;100.00;96407.69;5000711;28;20207;-81
2022/05/05 00:51:33;;;;;;;2.80;2.43;;;;;;;11.17;100.00;96400.75;5005886;28;20289;-81
2022/05/05 00:54:00;;;;;;;3.37;2.50;;;;;;;11.08;100.00;96394.03;5002461;28;20283;-81
2022/05/05 00:56:29;;;;;;;2.53;2.30;;;;;;;11.11;100.00;96404.41;4997091;28;20294;-81
2022/05/05 00:58:58;;;;;;;4.57;2.63;;;;;;;11.11;100.00;96401.69;5002347;28;20262;-82
2022/05/05 01:01:25;;;;;;;3.43;2.70;;;;;;;11.17;100.00;96399.94;5021107;28;20211;-82
2022/05/05 01:03:52;;;;;;;3.23;2.70;;;;;;;11.19;100.00;96409.47;5010973;28;20207;-82
2022/05/05 01:06:20;;;;;;;2.90;2.60;;;;;;;11.18;100.00;96407.81;4998288;28;20206;-81
2022/05/05 01:08:48;;;;;;;2.47;2.27;;;;;;;11.17;100.00;96394.53;5017391;28;20206;-81
2022/05/05 01:11:15;;;;;;;2.73;2.40;;;;;;;11.09;100.00;96398.38;5010626;28;20233;-81
2022/05/05 01:13:44;;;;;;;2.90;2.60;;;;;;;11.00;100.00;96395.19;5015368;28;20227;-81
2022/05/05 01:16:11;;;;;;;4.50;2.63;;;;;;;10.95;100.00;96388.84;5001176;28;20211;-82
2022/05/05 01:18:40;;;;;;;2.60;2.40;;;;;;;11.01;100.00;96393.31;5021393;28;20293;-81
2022/05/05 01:21:10;;;;;;;2.40;2.20;;;;;;;11.06;100.00;96393.44;5016175;28;20227;-82
2022/05/05 01:23:39;;;;;;;2.83;2.30;;;;;;;11.12;100.00;96406.03;5020349;28;20199;-82
2022/05/05 01:28:52;;;;;;;6.40;3.20;;;;;;;11.09;100.00;96403.78;5007518;28;20218;-80
2022/05/05 01:31:19;;;;;;;3.07;2.60;;;;;;;11.13;100.00;96414.97;5008242;28;20303;-81
2022/05/05 01:33:46;;;;;;;4.93;2.70;;;;;;;11.13;100.00;96410.41;5003456;28;20215;-82
2022/05/05 01:36:13;;;;;;;4.80;2.70;;;;;;;11.10;100.00;96404.63;5028610;28;20218;-81
2022/05/05 01:38:44;;;;;;;2.70;2.50;;;;;;;11.17;100.00;96405.34;5004241;28;20482;-81
2022/05/05 01:41:13;;;;;;;2.80;2.50;;;;;;;11.24;100.00;96422.25;5016526;28;20207;-82
2022/05/05 01:43:42;;;;;;;2.40;2.20;;;;;;;11.24;100.00;96406.88;5014243;28;20207;-82
2022/05/05 01:46:09;;;;;;;3.10;2.80;;;;;;;11.31;100.00;96412.97;5001059;28;20211;-81
2022/05/05 01:48:36;;;;;;;2.97;2.53;;;;;;;11.36;100.00;96410.44;5018676;28;20207;-82
2022/05/05 01:51:05;;;;;;;3.30;2.70;;;;;;;11.37;100.00;96414.78;5000012;28;20207;-82
2022/05/05 01:53:36;;;;;;;3.90;2.50;;;;;;;11.46;100.00;96417.97;5015735;28;20235;-81
2022/05/05 01:56:08;;;;;;;2.50;2.30;;;;;;;11.45;100.00;96412.78;4998486;28;20265;-81
2022/05/05 01:58:35;;;;;;;3.97;2.80;;;;;;;11.44;100.00;96417.38;5012406;28;20214;-81
2022/05/05 02:01:02;;;;;;;3.23;2.87;;;;;;;11.47;100.00;96422.31;5008644;28;20197;-81
2022/05/05 02:03:29;;;;;;;2.83;2.47;;;;;;;11.48;100.00;96418.56;4994268;28;20274;-82
2022/05/05 02:05:56;;;;;;;3.37;3.00;;;;;;;11.53;100.00;96421.38;5017571;28;20268;-83
2022/05/05 02:08:24;;;;;;;2.70;2.50;;;;;;;11.49;100.00;96413.94;5013830;28;20215;-81
2022/05/05 02:10:51;;;;;;;3.50;2.90;;;;;;;11.52;100.00;96408.06;5024859;28;20210;-81
2022/05/05 02:13:20;;;;;;;3.03;2.73;;;;;;;11.47;100.00;96411.50;4999809;28;20231;-82
2022/05/05 02:15:47;;;;;;;3.40;3.10;;;;;;;11.43;100.00;96415.72;5007592;28;20307;-81
2022/05/05 02:18:15;;;;;;;4.47;3.03;;;;;;;11.37;100.00;96411.25;5007556;28;20225;-81
2022/05/05 02:20:42;;;;;;;6.83;3.23;;;;;;;11.37;100.00;96403.13;5019260;28;20239;-82
2022/05/05 02:23:10;;;;;;;3.87;3.03;;;;;;;11.42;100.00;96407.81;4998454;28;20226;-81
2022/05/05 02:25:37;;;;;;;4.30;2.67;;;;;;;11.38;100.00;96408.31;5010920;28;20218;-81
2022/05/05 02:28:05;;;;;;;2.93;2.67;;;;;;;11.33;100.00;96413.59;5011052;28;20207;-82
2022/05/05 02:30:34;;;;;;;3.13;2.83;;;;;;;11.36;100.00;96405.03;4997481;28;20348;-82
2022/05/05 02:33:02;;;;;;;3.27;2.90;;;;;;;11.36;100.00;96396.91;5009129;28;20230;-80
2022/05/05 02:35:29;;;;;;;4.77;3.03;;;;;;;11.44;100.00;96400.31;5006058;28;20209;-81
2022/05/05 02:40:41;;;;;;;3.13;2.50;;;;;;;11.32;100.00;96398.41;5002528;28;20207;-82
2022/05/05 02:43:08;;;;;;;4.20;2.70;;;;;;;11.29;100.00;96392.66;5006293;28;20195;-81
2022/05/05 02:45:37;;;;;;;4.33;3.10;;;;;;;11.35;100.00;96402.53;5015973;28;20222;-82
2022/05/05 02:48:05;;;;;;;3.60;2.50;;;;;;;11.32;100.00;96387.59;5020834;28;20207;-81
2022/05/05 02:50:32;;;;;;;3.13;2.80;;;;;;;11.36;100.00;96394.19;5019503;28;20207;-81
2022/05/05 02:52:59;;;;;;;4.53;2.80;;;;;;;11.35;100.00;96384.44;5002880;28;20219;-82
2022/05/05 02:55:26;;;;;;;3.90;2.57;;;;;;;11.33;100.00;96393.84;5005158;28;20199;-80
2022/05/05 02:57:54;;;;;;;3.27;2.77;;;;;;;11.23;100.00;96394.41;5020607;28;20226;-82
2022/05/05 03:00:21;;;;;;;3.80;2.97;;;;;;;11.17;100.00;96389.94;5008973;28;20219;-84
2022/05/05 03:02:50;;;;;;;3.00;2.70;;;;;;;11.24;100.00;96389.81;5016097;28;20294;-80
2022/05/05 03:05:17;;;;;;;3.47;2.83;;;;;;;11.27;100.00;96390.19;5005586;28;20211;-82
2022/05/05 03:07:44;;;;;;;4.23;2.73;;;;;;;11.30;100.00;96395.16;5007246;28;20263;-81
2022/05/05 03:10:13;;;;;;;4.00;2.87;;;;;;;11.31;100.00;96390.56;5019129;28;20241;-82
2022/05/05 03:12:40;;;;;;;3.13;2.83;;;;;;;11.37;100.00;96389.63;5018450;28;20304;-82
2022/05/05 03:15:08;;;;;;;2.70;2.50;;;;;;;11.40;100.00;96394.53;5018465;28;20298;-81
2022/05/05 03:17:35;;;;;;;3.23;2.60;;;;;;;11.38;100.00;96386.69;5021863;28;20208;-81
2022/05/05 03:20:05;;;;;;;3.50;2.83;;;;;;;11.42;100.00;96394.31;5009001;28;20218;-81
2022/05/05 03:22:32;;;;;;;3.73;3.13;;;;;;;11.34;100.00;96403.59;4995762;28;20234;-82
2022/05/05 03:24:59;;;;;;;8.40;3.50;;;;;;;11.31;100.00;96396.75;5030656;28;20245;-83
2022/05/05 03:27:26;;;;;;;3.00;2.70;;;;;;;11.33;100.00;96399.25;5014990;28;20254;-81
2022/05/05 03:29:53;;;;;;;4.27;2.90;;;;;;;11.28;100.00;96396.44;4997013;28;20211;-81
2022/05/05 03:32:20;;;;;;;3.00;2.50;;;;;;;11.22;100.00;96394.66;5022223;28;20203;-81
2022/05/05 03:34:47;;;;;;;5.73;3.20;;;;;;;11.22;100.00;96392.78;4998439;28;20231;-82
2022/05/05 03:37:16;;;;;;;4.53;3.93;;;;;;;11.18;100.00;96393.47;5002989;28;20206;-82
2022/05/05 03:39:43;;;;;;;4.23;2.70;;;;;;;11.26;100.00;96402.06;5005516;28;20213;-80
2022/05/05 03:42:10;;;;;;;2.90;2.60;;;;;;;11.21;100.00;96395.72;4995148;28;20222;-81
2022/05/05 03:44:37;;;;;;;3.17;2.87;;;;;;;11.16;100.00;96399.09;5006998;28;20211;-80
2022/05/05 03:47:05;;;;;;;2.90;2.70;;;;;;;11.12;100.00;96395.22;5008539;28;20202;-81
2022/05/05 03:49:32;;;;;;;3.20;2.87;;;;;;;11.15;100.00;96405.56;5000414;28;20203;-80
2022/05/05 03:51:59;;;;;;;3.00;2.70;;;;;;;11.11;100.00;96393.59;5016010;28;20313;-82
2022/05/05 03:54:28;;;;;;;3.13;2.70;;;;;;;11.14;100.00;96395.84;5008580;28;20226;-82
2022/05/05 03:56:55;;;;;;;5.03;2.67;;;;;;;11.22;100.00;96402.78;5004928;28;20226;-82
2022/05/05 03:59:22;;;;;;;4.27;2.63;;;;;;;11.23;100.00;96397.09;5010041;28;20270;-81
2022/05/05 04:01:50;;;;;;;4.87;3.13;;;;;;;11.24;100.00;96389.81;5023117;28;20195;-83
2022/05/05 04:04:17;;;;;;;5.07;3.00;;;;;;;11.22;100.00;96391.97;5005842;28;20206;-82
2022/05/05 04:06:44;;;;;;;3.33;2.77;;;;;;;11.22;100.00;96395.50;5007591;28;20195;-82
2022/05/05 04:09:11;;;;;;;3.60;3.27;;;;;;;11.21;100.00;96393.00;4999897;28;20249;-81
2022/05/05 04:11:40;;;;;;;3.53;2.63;;;;;;;11.24;100.00;96393.34;5019154;28;20202;-80
2022/05/05 04:14:07;;;;;;;4.50;3.13;;;;;;;11.27;100.00;96387.50;5008492;28;20262;-80
2022/05/05 04:16:34;;;;;;;2.90;2.70;;;;;;;11.32;100.00;96393.00;5003486;28;20206;-80
2022/05/05 04:19:03;;;;;;;6.47;3.37;;;;;;;11.38;100.00;96386.69;5016723;28;20261;-80
2022/05/05 04:21:30;;;;;;;6.10;3.00;;;;;;;11.37;100.00;96379.63;5002677;28;20246;-81
2022/05/05 04:23:58;;;;;;;2.87;2.43;;;;;;;11.45;100.00;96388.44;5020282;28;20261;-79
2022/05/05 04:26:26;;;;;;;4.70;3.10;;;;;;;11.50;100.00;96394.78;5000894;28;20211;-79
2022/05/05 04:28:56;;;;;;;4.50;2.90;;;;;;;11.46;100.00;96392.81;5010931;28;20215;-81
2022/05/05 04:31:24;;;;;;;3.50;3.03;;;;;;;11.50;100.00;96393.97;5004823;28;20213;-81
2022/05/05 04:33:51;;;;;;;4.20;3.07;;;;;;;11.49;100.00;96393.13;5012814;28;20250;-82
2022/05/05 04:36:18;;;;;;;4.23;2.67;;;;;;;11.48;100.00;96388.00;5005132;28;20208;-81
2022/05/05 04:38:45;;;;;;;3.53;2.77;;;;;;;11.54;100.00;96389.75;5022786;28;20207;-80
2022/05/05 04:41:12;;;;;;;3.30;2.87;;;;;;;11.50;100.00;96386.69;5011449;28;20239;-81
2022/05/05 04:43:39;;;;;;;3.23;2.90;;;;;;;11.47;100.00;96389.88;5020486;28;20206;-84
2022/05/05 04:46:09;;;;;;;2.80;2.60;;;;;;;11.49;100.00;96385.03;5011843;28;20207;-81
2022/05/05 04:48:37;;;;;;;2.90;2.70;;;;;;;11.53;100.00;96385.38;5015247;28;20203;-81
2022/05/05 04:51:04;;;;;;;3.90;2.73;;;;;;;11.53;100.00;96382.69;5000895;28;20254;-82
2022/05/05 04:53:31;;;;;;;2.97;2.77;;;;;;;11.57;100.00;96390.06;5018800;28;20222;-81
2022/05/05 04:55:58;;;;;;;4.37;2.73;;;;;;;11.61;100.00;96393.16;5010671;28;20222;-80
2022/05/05 04:58:25;;;;;;;5.63;2.53;;;;;;;11.67;100.00;96394.91;5017136;28;20214;-81
2022/05/05 05:00:53;;;;;;;3.47;3.03;;;;;;;11.73;100.00;96389.41;5021103;28;20290;-82
2022/05/05 05:03:35;;;;;;;3.13;2.83;;;;;;;11.80;100.00;96399.28;5004679;28;20215;-82
2022/05/05 05:06:02;;;;;;;5.23;3.70;;;;;;;11.76;100.00;96385.41;5001250;28;20268;-82
2022/05/05 05:08:30;;;;;;;4.17;3.40;;;;;;;11.79;100.00;96390.34;5008196;28;20230;-82
2022/05/05 05:10:57;;;;;;;8.87;3.80;;;;;;;11.79;100.00;96382.25;5010685;28;20215;-82
2022/05/05 05:13:24;;;;;;;4.73;3.23;;;;;;;11.81;100.00;96388.25;5006643;28;20223;-82
2022/05/05 05:15:51;;;;;;;5.20;3.43;;;;;;;11.83;100.00;96388.81;5006841;28;20210;-82
2022/05/05 05:18:19;;;;;;;5.10;3.83;;;;;;;11.87;100.00;96400.81;5003198;28;20217;-82
2022/05/05 05:20:48;;;;;;;3.60;3.30;;;;;;;11.87;100.00;96400.00;5015954;28;20227;-81
2022/05/05 05:23:15;;;;;;;5.63;3.90;;;;;;;11.87;100.00;96405.41;4999322;28;20237;-82
2022/05/05 05:25:42;;;;;;;5.83;3.93;;;;;;;11.89;100.00;96404.13;5031157;28;20207;-81
2022/05/05 05:28:09;;;;;;;4.57;4.17;;;;;;;11.94;100.00;96400.69;5014279;28;20202;-82
2022/05/05 05:30:36;;;;;;;5.10;4.30;;;;;;;11.93;100.00;96404.44;5018705;28;20238;-83
2022/05/05 05:33:03;;;;;;;4.13;3.73;;;;;;;11.94;100.00;96398.78;4994298;28;20210;-82
2022/05/05 05:35:30;;;;;;;8.17;3.90;;;;;;;12.02;100.00;96403.84;5011488;28;20230;-84
2022/05/05 05:37:58;;;;;;;7.43;5.40;;;;;;;12.04;100.00;96396.31;5012277;28;20203;-80
2022/05/05 05:40:25;;;;;;;5.03;4.53;;;;;;;12.07;100.00;96417.50;5013442;28;20207;-82
2022/05/05 05:42:53;;;;;;;7.20;4.50;;;;;;;12.09;100.00;96428.91;5005706;28;20217;-81
2022/05/05 05:45:20;;;;;;;6.10;3.80;;;;;;;12.10;100.00;96421.59;5027190;28;20319;-83
2022/05/05 05:47:47;;;;;;;7.33;4.77;;;;;;;12.19;100.00;96433.72;5000220;28;20222;-83
2022/05/05 05:50:14;;;;;;;8.23;3.93;;;;;;;12.21;100.00;96436.19;5018175;28;20243;-83
2022/05/05 05:52:41;;;;;;;7.43;4.80;;;;;;;12.24;100.00;96441.97;5003691;28;20199;-82
2022/05/05 05:55:10;;;;;;;6.07;4.30;;;;;;;12.28;100.00;96442.28;4999706;28;20234;-83
2022/05/05 05:57:37;;;;;;;10.00;5.00;;;;;;;12.28;100.00;96426.88;5003541;28;20302;-87
2022/05/05 06:00:06;;;;;;;7.73;4.50;;;;;;;12.38;100.00;96434.38;5003980;28;20223;-83
2022/05/05 06:05:23;;;;;;;4.37;3.50;;;;;;;12.41;100.00;96423.09;5001130;28;20206;-83
2022/05/05 06:07:53;;;;;;;5.07;4.47;;;;;;;12.43;100.00;96431.75;5007794;28;20225;-88
2022/05/05 06:10:21;;;;;;;7.13;4.67;;;;;;;12.39;100.00;96431.44;5002646;28;20211;-83
2022/05/05 06:12:48;;;;;;;7.17;4.73;;;;;;;12.35;100.00;96430.25;5001207;28;20223;-83
2022/05/05 06:15:16;;;;;;;5.53;4.30;;;;;;;12.29;100.00;96433.09;5018652;28;20223;-83
2022/05/05 06:17:43;;;;;;;5.70;4.60;;;;;;;12.31;100.00;96428.28;5012335;28;20206;-83
2022/05/05 06:20:11;;;;;;;4.83;4.00;;;;;;;12.28;100.00;96434.16;5003166;28;20246;-83
2022/05/05 06:22:39;;;;;;;4.57;3.80;;;;;;;12.31;100.00;96420.16;5015704;28;20232;-83
2022/05/05 06:25:07;;;;;;;5.20;4.00;;;;;;;12.44;100.00;96428.81;5007625;28;20268;-83
2022/05/05 06:27:36;;;;;;;5.53;3.83;;;;;;;12.53;100.00;96421.13;5004522;28;20255;-83
2022/05/05 06:30:05;;;;;;;6.17;4.17;;;;;;;12.59;100.00;96430.22;5009362;28;20282;-83
2022/05/05 06:32:32;;;;;;;6.10;4.20;;;;;;;12.67;100.00;96430.66;4997762;28;20210;-83
2022/05/05 06:34:59;;;;;;;4.70;3.97;;;;;;;12.62;100.00;96429.72;5031946;28;20235;-82
2022/05/05 06:37:26;;;;;;;6.73;4.10;;;;;;;12.61;100.00;96434.31;5008857;28;20214;-89
2022/05/05 06:39:53;;;;;;;5.83;4.20;;;;;;;12.65;100.00;96438.19;5023305;28;20234;-83
2022/05/05 06:42:21;;;;;;;6.47;4.20;;;;;;;12.64;100.00;96436.53;5013872;28;20277;-87
2022/05/05 06:44:49;;;;;;;5.33;4.27;;;;;;;12.65;100.00;96437.38;5004575;28;20203;-89
2022/05/05 06:47:18;;;;;;;5.13;4.37;;;;;;;12.70;100.00;96430.16;5022774;28;20215;-84
2022/05/05 06:49:45;;;;;;;5.23;4.13;;;;;;;12.72;100.00;96436.16;5011253;28;20215;-88
2022/05/05 06:52:12;;;;;;;7.27;4.63;;;;;;;12.75;100.00;96432.16;5013282;28;20243;-82
2022/05/05 06:54:40;;;;;;;6.33;4.50;;;;;;;12.79;100.00;96441.44;5016951;28;20227;-83
2022/05/05 06:57:07;;;;;;;5.43;4.40;;;;;;;12.85;100.00;96438.56;5015165;28;20309;-80
2022/05/05 06:59:34;;;;;;;4.90;4.40;;;;;;;12.84;100.00;96439.63;5005124;28;20214;-83
2022/05/05 07:02:02;;;;;;;5.20;4.03;;;;;;;12.91;100.00;96447.63;4995626;28;20298;-80
2022/05/05 07:07:16;;;;;;;5.20;4.43;;;;;;;12.86;100.00;96442.91;5007349;28;20211;-88
2022/05/05 07:12:29;;;;;;;3.93;3.53;;;;;;;12.91;100.00;96438.69;5001063;28;20279;-83
2022/05/05 07:14:57;;;;;;;6.70;3.90;;;;;;;12.94;100.00;96446.31;5009190;28;20312;-83
2022/05/05 07:17:26;;;;;;;4.27;3.73;;;;;;;12.89;100.00;96436.19;5009459;28;20302;-83
2022/05/05 07:19:54;;;;;;;4.97;3.87;;;;;;;12.93;100.00;96447.41;5004464;28;20206;-83
2022/05/05 07:22:21;;;;;;;4.83;3.40;;;;;;;12.86;100.00;96433.97;5001212;28;20242;-83
2022/05/05 07:24:49;;;;;;;4.43;3.93;;;;;;;12.89;100.00;96436.19;5004978;28;20301;-80
2022/05/05 07:27:16;;;;;;;5.17;3.67;;;;;;;12.95;100.00;96445.25;5019673;28;20203;-82
2022/05/05 07:29:43;;;;;;;3.93;3.53;;;;;;;13.01;100.00;96450.53;5022515;28;20262;-79
2022/05/05 07:32:11;;;;;;;4.73;3.80;;;;;;;13.08;100.00;96440.34;5007661;28;20214;-88
2022/05/05 07:34:40;;;;;;;6.03;3.43;;;;;;;13.09;100.00;96441.19;4995806;28;20215;-89
2022/05/05 07:37:07;;;;;;;4.70;4.00;;;;;;;13.13;100.00;96447.75;5013673;28;20242;-89
2022/05/05 07:39:34;;;;;;;9.07;3.93;;;;;;;13.16;100.00;96450.00;5010442;28;20205;-81
2022/05/05 07:42:01;;;;;;;6.37;3.97;;;;;;;13.11;100.00;96437.16;5005431;28;20297;-88
2022/05/05 07:44:29;;;;;;;6.10;4.20;;;;;;;13.20;100.00;96446.56;4994114;28;20221;-88
2022/05/05 07:46:56;;;;;;;4.87;3.57;;;;;;;13.23;100.00;96447.97;5004491;28;20211;-88
2022/05/05 07:49:23;;;;;;;4.53;4.03;;;;;;;13.33;100.00;96448.16;5001414;28;20207;-87
2022/05/05 07:51:52;;;;;;;5.37;4.00;;;;;;;13.33;100.00;96445.44;5008207;28;20211;-89
2022/05/05 07:54:38;;;;;;;4.83;3.87;;;;;;;13.40;100.00;96453.41;5005899;28;20235;-83
2022/05/05 07:57:08;;;;;;;5.13;4.30;;;;;;;13.49;100.00;96454.66;5000610;28;20226;-81
2022/05/05 07:59:36;;;;;;;5.53;4.50;;;;;;;13.55;100.00;96459.91;5004805;28;20243;-87
2022/05/05 08:02:08;;;;;;;5.00;4.43;;;;;;;13.52;100.00;96463.13;4997655;28;20217;-87
2022/05/05 08:04:36;;;;;;;5.07;4.47;;;;;;;13.47;100.00;96473.88;5002037;28;20212;-87
2022/05/05 08:07:05;;;;;;;5.67;4.37;;;;;;;13.39;100.00;96463.44;5006205;28;20203;-83
2022/05/05 08:09:32;;;;;;;6.13;4.60;;;;;;;13.30;100.00;96462.19;5008491;28;20293;-88
2022/05/05 08:12:00;;;;;;;8.83;4.67;;;;;;;13.28;100.00;96461.59;5003460;28;20215;-89
2022/05/05 08:14:27;;;;;;;6.17;4.20;;;;;;;13.30;100.00;96464.06;5003984;28;20311;-83
2022/05/05 08:16:55;;;;;;;6.37;4.90;;;;;;;13.38;100.00;96455.53;5002198;28;20226;-89
2022/05/05 08:19:22;;;;;;;7.27;4.70;;;;;;;13.51;100.00;96463.38;5018320;28;20309;-81
2022/05/05 08:21:50;;;;;;;4.43;4.03;;;;;;;13.53;100.00;96464.75;5025969;28;20262;-81
2022/05/05 08:29:47;;;;;;;7.30;5.07;;;;;;;13.39;100.00;96459.91;4998768;28;20202;-83
2022/05/05 08:32:14;;;;;;;5.70;4.90;;;;;;;13.42;100.00;96468.38;5008160;28;20294;-83
2022/05/05 08:34:41;;;;;;;7.63;4.80;;;;;;;13.38;100.00;96472.63;4997516;28;20227;-83
2022/05/05 08:37:08;;;;;;;6.77;5.03;;;;;;;13.42;100.00;96467.56;5001102;28;20213;-83
2022/05/05 08:39:38;;;;;;;6.60;5.60;;;;;;;13.39;100.00;96463.44;4993990;28;20214;-83
2022/05/05 08:42:06;;;;;;;7.10;5.07;;;;;;;13.41;100.00;96472.16;5010051;28;20215;-83
2022/05/05 08:44:33;;;;;;;6.83;5.53;;;;;;;13.51;100.00;96476.94;5010534;28;20196;-83
2022/05/05 08:47:00;;;;;;;6.50;5.40;;;;;;;13.62;100.00;96476.84;5008755;28;20219;-83
2022/05/05 08:49:28;;;;;;;6.77;5.63;;;;;;;13.69;100.00;96467.75;5013917;28;20205;-83
2022/05/05 08:51:55;;;;;;;6.60;5.63;;;;;;;13.79;100.00;96478.72;5013492;28;20218;-83
2022/05/05 08:54:25;;;;;;;7.13;5.93;;;;;;;13.93;100.00;96467.31;4999905;28;20230;-83
2022/05/05 08:56:54;;;;;;;6.93;5.73;;;;;;;13.96;100.00;96479.53;5018018;28;20288;-83
2022/05/05 08:59:22;;;;;;;6.80;6.00;;;;;;;13.93;100.00;96471.91;5009981;28;20211;-83
2022/05/05 09:01:51;;;;;;;6.43;5.73;;;;;;;13.95;100.00;96475.22;4994581;28;20206;-83
2022/05/05 09:04:18;;;;;;;8.67;5.97;;;;;;;14.01;100.00;96468.78;4989979;28;20289;-83
2022/05/05 09:06:47;;;;;;;7.47;5.63;;;;;;;14.06;100.00;96468.84;4995553;28;20209;-83
2022/05/05 09:09:25;;;;;;;6.93;6.23;;;;;;;14.06;100.00;96473.44;5010870;28;20238;-83
2022/05/05 09:12:16;;;;;;;7.23;6.13;;;;;;;14.09;100.00;96479.22;5009795;28;20211;-83
2022/05/05 09:14:45;;;;;;;8.67;5.80;;;;;;;14.16;100.00;96471.72;5014451;28;20220;-83
2022/05/05 09:17:14;;;;;;;7.83;6.13;;;;;;;14.30;100.00;96475.72;5019403;28;20211;-82
2022/05/05 09:19:44;;;;;;;7.40;6.17;;;;;;;14.29;100.00;96479.50;4996702;28;20231;-83
2022/05/05 09:22:11;;;;;;;9.37;6.70;;;;;;;14.23;100.00;96475.06;4995512;28;20303;-83
2022/05/05 09:24:43;;;;;;;8.43;6.90;;;;;;;14.34;100.00;96479.56;5000371;28;20199;-83
2022/05/05 09:27:24;;;;;;;9.17;6.70;;;;;;;14.35;100.00;96483.13;5004757;28;20314;-82
2022/05/05 09:30:07;;;;;;;7.30;6.13;;;;;;;14.19;100.00;96478.53;5004514;28;20214;-83
2022/05/05 09:32:36;;;;;;;7.37;6.20;;;;;;;14.25;100.00;96472.94;5021865;28;20204;-82
2022/05/05 09:35:07;;;;;;;9.07;6.80;;;;;;;14.23;100.00;96475.06;5021078;28;20227;-83
2022/05/05 09:37:34;;;;;;;8.77;7.30;;;;;;;14.25;100.00;96472.94;5004119;28;20204;-82
2022/05/05 09:40:03;;;;;;;7.63;6.27;;;;;;;14.34;100.00;96476.88;5005084;28;20299;-83
2022/05/05 09:42:45;;;;;;;8.87;6.53;;;;;;;14.39;100.00;96474.22;5008386;28;20231;-83
2022/05/05 09:45:23;;;;;;;9.53;6.83;;;;;;;14.46;100.00;96467.81;5003296;28;20219;-82
2022/05/05 09:47:52;;;;;;;7.63;6.40;;;;;;;14.51;100.00;96465.16;4997235;28;20212;-83
2022/05/05 09:50:21;;;;;;;7.30;6.27;;;;;;;14.64;100.00;96473.75;5014263;28;20218;-83
2022/05/05 09:58:22;;;;;;;7.50;6.70;;;;;;;14.88;100.00;96470.78;5010476;28;20208;-83
2022/05/05 10:00:59;;;;;;;7.90;7.10;;;;;;;14.79;100.00;96462.25;5004459;28;20208;-83
2022/05/05 10:06:26;;;;;;;11.57;6.77;;;;;;;14.97;100.00;96467.34;5002256;28;20204;-83
2022/05/05 10:08:54;;;;;;;7.67;6.80;;;;;;;15.08;100.00;96471.00;4992626;28;20306;-83
2022/05/05 10:11:23;;;;;;;7.87;6.10;;;;;;;15.33;100.00;96468.53;5014684;28;20207;-83
2022/05/05 10:13:52;;;;;;;8.00;6.67;;;;;;;15.39;100.00;96472.16;4993732;28;20270;-83
2022/05/05 10:16:20;;;;;;;7.40;6.57;;;;;;;15.44;100.00;96473.00;5001953;28;20230;-83
2022/05/05 10:18:48;;;;;;;7.47;6.33;;;;;;;15.38;100.00;96459.63;4990539;28;20341;-83
2022/05/05 10:21:27;;;;;;;8.23;6.50;;;;;;;15.42;100.00;96460.72;4996229;28;20238;-83
2022/05/05 10:24:06;;;;;;;7.90;6.03;;;;;;;15.42;100.00;96469.72;5019501;28;20285;-83
2022/05/05 10:26:34;;;;;;;7.13;6.43;;;;;;;15.47;100.00;96464.34;4999250;28;20292;-83
2022/05/05 10:29:02;;;;;;;7.60;6.33;;;;;;;15.48;100.00;96459.72;4990177;28;20199;-83
2022/05/05 10:31:43;;;;;;;8.27;6.27;;;;;;;15.40;100.00;96458.25;5011538;28;20207;-82
2022/05/05 10:34:16;;;;;;;7.93;6.30;;;;;;;15.40;100.00;96449.28;5006330;28;20298;-83
2022/05/05 10:36:59;;;;;;;6.97;6.27;;;;;;;15.36;100.00;96456.31;5004582;28;20301;-81
2022/05/05 10:39:41;;;;;;;6.77;5.63;;;;;;;15.33;100.00;96451.38;5005057;28;20214;-81
2022/05/05 10:42:19;;;;;;;9.07;7.73;;;;;;;15.35;100.00;96454.69;4997900;28;20234;-81
2022/05/05 10:45:09;;;;;;;8.30;6.20;;;;;;;15.42;100.00;96449.84;5010671;28;20226;-82
2022/05/05 10:48:19;;;;;;;7.40;5.90;;;;;;;15.45;100.00;96454.78;5013792;28;20218;-81
2022/05/05 10:50:53;;;;;;;6.53;5.93;;;;;;;15.51;100.00;96448.28;5007102;28;20265;-83
2022/05/05 10:53:45;;;;;;;6.73;6.03;;;;;;;15.54;100.00;96447.81;5010086;28;20211;-81
2022/05/05 10:56:29;;;;;;;6.63;5.93;;;;;;;15.54;100.00;96436.94;4988244;28;20227;-80
2022/05/05 10:59:08;;;;;;;5.97;5.43;;;;;;;15.67;100.00;96435.66;5020578;28;20214;-82
2022/05/05 11:02:00;;;;;;;6.83;6.13;;;;;;;15.79;100.00;96444.47;5016471;28;20208;-81
2022/05/05 11:04:33;;;;;;;6.20;5.57;;;;;;;15.75;100.00;96436.00;5006413;28;20290;-80
2022/05/05 11:07:36;;;;;;;6.43;5.73;;;;;;;15.76;100.00;96442.25;5011533;28;20218;-80
2022/05/05 11:10:09;;;;;;;6.13;5.53;;;;;;;15.71;100.00;96437.63;5002607;28;20213;-81
2022/05/05 11:12:39;;;;;;;8.20;5.73;;;;;;;15.64;99.89;96437.03;5001157;28;20302;-80
2022/05/05 11:23:43;;;;;;;7.90;5.50;;;;;;;15.88;100.00;96432.03;5014970;28;20284;-81
2022/05/05 11:26:12;;;;;;;6.20;5.47;;;;;;;15.96;98.91;96425.25;4992202;28;20302;-81
2022/05/05 11:28:39;;;;;;;6.17;5.57;;;;;;;15.94;99.05;96424.69;5009967;28;20204;-82
2022/05/05 11:31:18;;;;;;;6.53;5.80;;;;;;;15.93;100.00;96421.16;5017780;28;20206;-82
2022/05/05 11:33:53;;;;;;;8.33;5.47;;;;;;;15.94;99.90;96424.69;5000480;28;20203;-82
2022/05/05 11:36:21;;;;;;;8.73;6.13;;;;;;;15.85;100.00;96416.19;5006639;28;20237;-83
2022/05/05 11:38:48;;;;;;;7.00;5.47;;;;;;;15.80;99.02;96425.16;5004995;28;20203;-83
2022/05/05 11:41:20;;;;;;;6.80;6.07;;;;;;;15.81;100.00;96426.81;5017296;28;20208;-81
2022/05/05 11:46:32;;;;;;;6.90;5.40;;;;;;;15.82;100.00;96428.44;4996551;28;20215;-80
2022/05/05 11:49:01;;;;;;;6.43;5.63;;;;;;;15.75;100.00;96425.13;5015665;28;20246;-80
2022/05/05 11:51:31;;;;;;;8.00;5.70;;;;;;;15.65;100.00;96416.84;5000356;28;20219;-82
2022/05/05 11:54:05;;;;;;;6.27;5.67;;;;;;;15.83;100.00;96423.81;5022174;28;20211;-81
2022/05/05 11:56:32;;;;;;;5.80;5.17;;;;;;;15.81;100.00;96405.03;4997346;28;20231;-80
2022/05/05 12:02:09;;;;;;;5.87;5.23;;;;;;;15.78;98.90;96419.16;4998092;28;20207;-81
2022/05/05 12:04:41;;;;;;;9.07;5.90;;;;;;;15.81;100.00;96421.38;5003131;28;20226;-82
2022/05/05 12:07:09;;;;;;;6.57;5.43;;;;;;;15.70;100.00;96419.63;5014924;28;20220;-81
2022/05/05 12:09:38;;;;;;;6.87;5.73;;;;;;;15.69;100.00;96431.59;5018690;28;20218;-81
2022/05/05 12:12:17;;;;;;;6.07;5.47;;;;;;;15.48;100.00;96421.63;5006993;28;20270;-80
2022/05/05 12:14:46;;;;;;;7.40;5.27;;;;;;;15.37;100.00;96419.88;5005363;28;20214;-81
2022/05/05 12:17:19;;;;;;;7.77;5.43;;;;;;;15.18;100.00;96413.16;5026161;28;20246;-81
2022/05/05 12:19:53;;;;;;;6.00;5.27;;;;;;;15.07;100.00;96414.97;5018060;28;20214;-80